sensor_id;sensor_type;location;lat;lon;timestamp;P1;durP1;ratioP1;P2;durP2;ratioP2
11797;SDS011;5956;51.428;6.682;2024-03-08T00:02:16;19.53;;;16.63;;
11797;SDS011;5956;51.428;6.682;2024-03-08T00:04:42;24.17;;;18.00;;
11797;SDS011;5956;51.428;6.682;2024-03-08T00:07:10;20.67;;;16.57;;
11797;SDS011;5956;51.428;6.682;2024-03-08T00:09:36;23.07;;;16.87;;
11797;SDS011;5956;51.428;6.682;2024-03-08T00:12:03;22.47;;;17.13;;
11797;SDS011;5956;51.428;6.682;2024-03-08T00:14:29;20.57;;;17.33;;
11797;SDS011;5956;51.428;6.682;2024-03-08T00:16:56;21.47;;;17.37;;
11797;SDS011;5956;51.428;6.682;2024-03-08T00:19:23;21.20;;;16.97;;
11797;SDS011;5956;51.428;6.682;2024-03-08T00:21:50;22.77;;;18.13;;
11797;SDS011;5956;51.428;6.682;2024-03-08T00:24:16;22.40;;;17.60;;
11797;SDS011;5956;51.428;6.682;2024-03-08T00:26:43;23.47;;;17.70;;
11797;SDS011;5956;51.428;6.682;2024-03-08T00:29:09;19.93;;;17.53;;
11797;SDS011;5956;51.428;6.682;2024-03-08T00:31:36;25.23;;;17.87;;
11797;SDS011;5956;51.428;6.682;2024-03-08T00:34:02;20.93;;;18.53;;
11797;SDS011;5956;51.428;6.682;2024-03-08T00:36:30;20.17;;;16.83;;
11797;SDS011;5956;51.428;6.682;2024-03-08T00:38:57;22.03;;;17.50;;
11797;SDS011;5956;51.428;6.682;2024-03-08T00:41:25;19.93;;;17.60;;
11797;SDS011;5956;51.428;6.682;2024-03-08T00:43:52;20.77;;;16.73;;
11797;SDS011;5956;51.428;6.682;2024-03-08T00:46:18;20.53;;;17.50;;
11797;SDS011;5956;51.428;6.682;2024-03-08T00:48:45;20.80;;;17.20;;
11797;SDS011;5956;51.428;6.682;2024-03-08T00:51:12;20.97;;;17.37;;
11797;SDS011;5956;51.428;6.682;2024-03-08T00:53:41;19.37;;;17.30;;
11797;SDS011;5956;51.428;6.682;2024-03-08T00:56:08;21.40;;;16.87;;
11797;SDS011;5956;51.428;6.682;2024-03-08T00:58:36;24.20;;;17.63;;
11797;SDS011;5956;51.428;6.682;2024-03-08T01:01:02;20.20;;;16.87;;
11797;SDS011;5956;51.428;6.682;2024-03-08T01:03:29;22.70;;;17.80;;
11797;SDS011;5956;51.428;6.682;2024-03-08T01:05:57;19.47;;;16.80;;
11797;SDS011;5956;51.428;6.682;2024-03-08T01:08:26;21.87;;;17.93;;
11797;SDS011;5956;51.428;6.682;2024-03-08T01:10:54;18.77;;;16.67;;
11797;SDS011;5956;51.428;6.682;2024-03-08T01:13:21;17.97;;;15.50;;
11797;SDS011;5956;51.428;6.682;2024-03-08T01:15:47;18.07;;;16.27;;
11797;SDS011;5956;51.428;6.682;2024-03-08T01:18:14;18.97;;;16.97;;
11797;SDS011;5956;51.428;6.682;2024-03-08T01:20:40;19.37;;;16.13;;
11797;SDS011;5956;51.428;6.682;2024-03-08T01:23:07;19.50;;;17.50;;
11797;SDS011;5956;51.428;6.682;2024-03-08T01:25:34;20.33;;;17.27;;
11797;SDS011;5956;51.428;6.682;2024-03-08T01:28:02;20.23;;;17.10;;
11797;SDS011;5956;51.428;6.682;2024-03-08T01:30:29;18.43;;;16.43;;
11797;SDS011;5956;51.428;6.682;2024-03-08T01:32:57;19.43;;;16.17;;
11797;SDS011;5956;51.428;6.682;2024-03-08T01:35:24;20.80;;;17.40;;
11797;SDS011;5956;51.428;6.682;2024-03-08T01:37:52;19.17;;;17.20;;
11797;SDS011;5956;51.428;6.682;2024-03-08T01:40:18;20.83;;;17.87;;
11797;SDS011;5956;51.428;6.682;2024-03-08T01:42:45;19.67;;;17.53;;
11797;SDS011;5956;51.428;6.682;2024-03-08T01:45:14;20.80;;;18.60;;
11797;SDS011;5956;51.428;6.682;2024-03-08T01:47:41;20.23;;;17.70;;
11797;SDS011;5956;51.428;6.682;2024-03-08T01:50:08;20.73;;;18.20;;
11797;SDS011;5956;51.428;6.682;2024-03-08T01:52:35;19.40;;;17.37;;
11797;SDS011;5956;51.428;6.682;2024-03-08T01:55:03;18.70;;;16.77;;
11797;SDS011;5956;51.428;6.682;2024-03-08T01:57:32;21.00;;;16.83;;
11797;SDS011;5956;51.428;6.682;2024-03-08T01:59:58;21.67;;;17.17;;
11797;SDS011;5956;51.428;6.682;2024-03-08T02:02:30;19.67;;;17.53;;
11797;SDS011;5956;51.428;6.682;2024-03-08T02:04:59;20.70;;;18.10;;
11797;SDS011;5956;51.428;6.682;2024-03-08T02:07:26;19.83;;;17.73;;
11797;SDS011;5956;51.428;6.682;2024-03-08T02:09:52;22.10;;;19.80;;
11797;SDS011;5956;51.428;6.682;2024-03-08T02:12:19;20.70;;;18.53;;
11797;SDS011;5956;51.428;6.682;2024-03-08T02:14:46;21.97;;;18.53;;
11797;SDS011;5956;51.428;6.682;2024-03-08T02:17:13;21.60;;;18.80;;
11797;SDS011;5956;51.428;6.682;2024-03-08T02:19:41;22.20;;;17.57;;
11797;SDS011;5956;51.428;6.682;2024-03-08T02:22:09;22.43;;;19.63;;
11797;SDS011;5956;51.428;6.682;2024-03-08T02:24:35;22.00;;;18.20;;
11797;SDS011;5956;51.428;6.682;2024-03-08T02:27:02;19.90;;;17.63;;
11797;SDS011;5956;51.428;6.682;2024-03-08T02:29:28;21.03;;;18.87;;
11797;SDS011;5956;51.428;6.682;2024-03-08T02:31:55;19.47;;;17.43;;
11797;SDS011;5956;51.428;6.682;2024-03-08T02:34:22;21.67;;;18.50;;
11797;SDS011;5956;51.428;6.682;2024-03-08T02:36:50;21.47;;;18.00;;
11797;SDS011;5956;51.428;6.682;2024-03-08T02:39:18;20.33;;;17.93;;
11797;SDS011;5956;51.428;6.682;2024-03-08T02:41:45;22.50;;;18.87;;
11797;SDS011;5956;51.428;6.682;2024-03-08T02:44:11;21.83;;;18.37;;
11797;SDS011;5956;51.428;6.682;2024-03-08T02:46:38;19.10;;;17.00;;
11797;SDS011;5956;51.428;6.682;2024-03-08T02:49:04;24.23;;;18.53;;
11797;SDS011;5956;51.428;6.682;2024-03-08T02:51:33;23.20;;;19.00;;
11797;SDS011;5956;51.428;6.682;2024-03-08T02:54:00;21.57;;;18.07;;
11797;SDS011;5956;51.428;6.682;2024-03-08T02:56:28;20.77;;;18.57;;
11797;SDS011;5956;51.428;6.682;2024-03-08T02:58:55;21.50;;;18.03;;
11797;SDS011;5956;51.428;6.682;2024-03-08T03:01:21;21.53;;;18.97;;
11797;SDS011;5956;51.428;6.682;2024-03-08T03:03:48;23.40;;;19.37;;
11797;SDS011;5956;51.428;6.682;2024-03-08T03:06:14;26.53;;;20.17;;
11797;SDS011;5956;51.428;6.682;2024-03-08T03:08:41;21.27;;;18.73;;
11797;SDS011;5956;51.428;6.682;2024-03-08T03:11:10;23.93;;;19.00;;
11797;SDS011;5956;51.428;6.682;2024-03-08T03:13:39;21.90;;;19.60;;
11797;SDS011;5956;51.428;6.682;2024-03-08T03:16:07;22.77;;;20.37;;
11797;SDS011;5956;51.428;6.682;2024-03-08T03:18:35;24.27;;;20.00;;
11797;SDS011;5956;51.428;6.682;2024-03-08T03:21:01;24.80;;;20.43;;
11797;SDS011;5956;51.428;6.682;2024-03-08T03:23:35;22.27;;;19.40;;
11797;SDS011;5956;51.428;6.682;2024-03-08T03:26:04;25.53;;;20.03;;
11797;SDS011;5956;51.428;6.682;2024-03-08T03:28:32;22.60;;;19.67;;
11797;SDS011;5956;51.428;6.682;2024-03-08T03:31:00;24.07;;;20.53;;
11797;SDS011;5956;51.428;6.682;2024-03-08T03:33:27;23.00;;;19.83;;
11797;SDS011;5956;51.428;6.682;2024-03-08T03:35:53;22.87;;;20.07;;
11797;SDS011;5956;51.428;6.682;2024-03-08T03:38:19;24.73;;;19.87;;
11797;SDS011;5956;51.428;6.682;2024-03-08T03:40:48;23.37;;;20.33;;
11797;SDS011;5956;51.428;6.682;2024-03-08T03:43:17;21.80;;;19.47;;
11797;SDS011;5956;51.428;6.682;2024-03-08T03:45:44;24.43;;;21.10;;
11797;SDS011;5956;51.428;6.682;2024-03-08T03:48:12;26.10;;;21.17;;
11797;SDS011;5956;51.428;6.682;2024-03-08T03:50:38;24.50;;;20.10;;
11797;SDS011;5956;51.428;6.682;2024-03-08T03:53:05;26.33;;;22.13;;
11797;SDS011;5956;51.428;6.682;2024-03-08T03:55:33;24.47;;;20.97;;
11797;SDS011;5956;51.428;6.682;2024-03-08T03:58:00;23.43;;;20.90;;
11797;SDS011;5956;51.428;6.682;2024-03-08T04:00:26;24.40;;;20.67;;
11797;SDS011;5956;51.428;6.682;2024-03-08T04:02:53;23.73;;;20.87;;
11797;SDS011;5956;51.428;6.682;2024-03-08T04:05:21;24.10;;;21.43;;
11797;SDS011;5956;51.428;6.682;2024-03-08T04:07:48;26.93;;;21.43;;
11797;SDS011;5956;51.428;6.682;2024-03-08T04:10:14;25.23;;;20.80;;
11797;SDS011;5956;51.428;6.682;2024-03-08T04:12:41;25.53;;;21.77;;
11797;SDS011;5956;51.428;6.682;2024-03-08T04:15:07;24.07;;;20.97;;
11797;SDS011;5956;51.428;6.682;2024-03-08T04:17:36;25.80;;;21.47;;
11797;SDS011;5956;51.428;6.682;2024-03-08T04:20:06;22.67;;;20.27;;
11797;SDS011;5956;51.428;6.682;2024-03-08T04:22:36;25.20;;;21.47;;
11797;SDS011;5956;51.428;6.682;2024-03-08T04:25:03;25.90;;;22.10;;
11797;SDS011;5956;51.428;6.682;2024-03-08T04:27:29;27.17;;;22.10;;
11797;SDS011;5956;51.428;6.682;2024-03-08T04:29:57;25.53;;;21.87;;
11797;SDS011;5956;51.428;6.682;2024-03-08T04:32:24;24.60;;;21.73;;
11797;SDS011;5956;51.428;6.682;2024-03-08T04:34:51;25.60;;;21.70;;
11797;SDS011;5956;51.428;6.682;2024-03-08T04:37:17;24.53;;;21.33;;
11797;SDS011;5956;51.428;6.682;2024-03-08T04:39:48;25.80;;;22.07;;
11797;SDS011;5956;51.428;6.682;2024-03-08T04:42:15;24.80;;;22.10;;
11797;SDS011;5956;51.428;6.682;2024-03-08T04:44:43;29.87;;;23.10;;
11797;SDS011;5956;51.428;6.682;2024-03-08T04:47:09;28.33;;;23.27;;
11797;SDS011;5956;51.428;6.682;2024-03-08T04:49:36;29.00;;;22.90;;
11797;SDS011;5956;51.428;6.682;2024-03-08T04:52:02;29.80;;;22.93;;
11797;SDS011;5956;51.428;6.682;2024-03-08T04:54:29;26.53;;;22.23;;
11797;SDS011;5956;51.428;6.682;2024-03-08T04:56:57;26.20;;;21.50;;
11797;SDS011;5956;51.428;6.682;2024-03-08T04:59:25;28.07;;;22.57;;
11797;SDS011;5956;51.428;6.682;2024-03-08T05:01:51;28.57;;;21.80;;
11797;SDS011;5956;51.428;6.682;2024-03-08T05:04:18;27.57;;;22.77;;
11797;SDS011;5956;51.428;6.682;2024-03-08T05:06:44;25.93;;;22.47;;
11797;SDS011;5956;51.428;6.682;2024-03-08T05:09:11;29.60;;;22.67;;
11797;SDS011;5956;51.428;6.682;2024-03-08T05:11:39;30.37;;;22.73;;
11797;SDS011;5956;51.428;6.682;2024-03-08T05:14:07;27.37;;;22.23;;
11797;SDS011;5956;51.428;6.682;2024-03-08T05:16:34;29.63;;;22.53;;
11797;SDS011;5956;51.428;6.682;2024-03-08T05:19:01;28.77;;;23.33;;
11797;SDS011;5956;51.428;6.682;2024-03-08T05:21:27;28.00;;;23.40;;
11797;SDS011;5956;51.428;6.682;2024-03-08T05:23:54;29.13;;;23.33;;
11797;SDS011;5956;51.428;6.682;2024-03-08T05:26:24;30.93;;;22.73;;
11797;SDS011;5956;51.428;6.682;2024-03-08T05:28:51;25.37;;;22.27;;
11797;SDS011;5956;51.428;6.682;2024-03-08T05:31:22;27.70;;;23.70;;
11797;SDS011;5956;51.428;6.682;2024-03-08T05:33:48;28.97;;;22.87;;
11797;SDS011;5956;51.428;6.682;2024-03-08T05:36:15;29.03;;;22.40;;
11797;SDS011;5956;51.428;6.682;2024-03-08T05:38:42;27.37;;;21.83;;
11797;SDS011;5956;51.428;6.682;2024-03-08T05:41:08;28.13;;;22.47;;
11797;SDS011;5956;51.428;6.682;2024-03-08T05:43:35;26.53;;;22.30;;
11797;SDS011;5956;51.428;6.682;2024-03-08T05:46:01;27.73;;;22.63;;
11797;SDS011;5956;51.428;6.682;2024-03-08T05:48:31;30.63;;;24.73;;
11797;SDS011;5956;51.428;6.682;2024-03-08T05:50:58;28.17;;;23.93;;
11797;SDS011;5956;51.428;6.682;2024-03-08T05:53:24;27.90;;;23.13;;
11797;SDS011;5956;51.428;6.682;2024-03-08T05:55:51;29.17;;;23.50;;
11797;SDS011;5956;51.428;6.682;2024-03-08T05:58:19;30.33;;;22.03;;
11797;SDS011;5956;51.428;6.682;2024-03-08T06:00:45;28.57;;;22.87;;
11797;SDS011;5956;51.428;6.682;2024-03-08T06:03:12;29.77;;;22.30;;
11797;SDS011;5956;51.428;6.682;2024-03-08T06:05:40;27.17;;;22.83;;
11797;SDS011;5956;51.428;6.682;2024-03-08T06:08:07;27.93;;;23.67;;
11797;SDS011;5956;51.428;6.682;2024-03-08T06:10:33;29.17;;;22.40;;
11797;SDS011;5956;51.428;6.682;2024-03-08T06:13:00;29.83;;;23.13;;
11797;SDS011;5956;51.428;6.682;2024-03-08T06:15:27;29.83;;;23.13;;
11797;SDS011;5956;51.428;6.682;2024-03-08T06:17:54;28.77;;;23.53;;
11797;SDS011;5956;51.428;6.682;2024-03-08T06:20:21;28.77;;;22.83;;
11797;SDS011;5956;51.428;6.682;2024-03-08T06:22:52;28.57;;;23.50;;
11797;SDS011;5956;51.428;6.682;2024-03-08T06:25:19;31.13;;;24.03;;
11797;SDS011;5956;51.428;6.682;2024-03-08T06:27:46;26.98;;;24.23;;
11797;SDS011;5956;51.428;6.682;2024-03-08T06:30:13;30.20;;;24.97;;
11797;SDS011;5956;51.428;6.682;2024-03-08T06:32:41;31.70;;;24.13;;
11797;SDS011;5956;51.428;6.682;2024-03-08T06:35:08;27.00;;;23.33;;
11797;SDS011;5956;51.428;6.682;2024-03-08T06:37:35;28.37;;;22.97;;
11797;SDS011;5956;51.428;6.682;2024-03-08T06:40:03;32.97;;;24.60;;
11797;SDS011;5956;51.428;6.682;2024-03-08T06:42:33;28.57;;;23.03;;
11797;SDS011;5956;51.428;6.682;2024-03-08T06:45:00;27.73;;;23.33;;
11797;SDS011;5956;51.428;6.682;2024-03-08T06:47:30;31.30;;;23.70;;
11797;SDS011;5956;51.428;6.682;2024-03-08T06:49:56;29.33;;;23.70;;
11797;SDS011;5956;51.428;6.682;2024-03-08T06:52:23;33.23;;;24.70;;
11797;SDS011;5956;51.428;6.682;2024-03-08T06:54:50;28.30;;;23.23;;
11797;SDS011;5956;51.428;6.682;2024-03-08T06:57:19;27.27;;;24.37;;
11797;SDS011;5956;51.428;6.682;2024-03-08T06:59:47;30.97;;;24.80;;
11797;SDS011;5956;51.428;6.682;2024-03-08T07:02:13;27.97;;;23.00;;
11797;SDS011;5956;51.428;6.682;2024-03-08T07:04:40;28.57;;;23.50;;
11797;SDS011;5956;51.428;6.682;2024-03-08T07:07:07;29.57;;;23.60;;
11797;SDS011;5956;51.428;6.682;2024-03-08T07:09:34;26.93;;;23.77;;
11797;SDS011;5956;51.428;6.682;2024-03-08T07:12:01;28.87;;;23.30;;
11797;SDS011;5956;51.428;6.682;2024-03-08T07:14:30;27.40;;;23.17;;
11797;SDS011;5956;51.428;6.682;2024-03-08T07:16:57;28.20;;;23.23;;
11797;SDS011;5956;51.428;6.682;2024-03-08T07:19:23;26.10;;;22.23;;
11797;SDS011;5956;51.428;6.682;2024-03-08T07:21:50;29.23;;;22.37;;
11797;SDS011;5956;51.428;6.682;2024-03-08T07:24:16;26.60;;;23.57;;
11797;SDS011;5956;51.428;6.682;2024-03-08T07:27:04;28.33;;;23.87;;
11797;SDS011;5956;51.428;6.682;2024-03-08T07:29:32;29.13;;;23.57;;
11797;SDS011;5956;51.428;6.682;2024-03-08T07:31:59;28.33;;;24.03;;
11797;SDS011;5956;51.428;6.682;2024-03-08T07:34:37;28.53;;;23.50;;
11797;SDS011;5956;51.428;6.682;2024-03-08T07:37:05;29.60;;;24.20;;
11797;SDS011;5956;51.428;6.682;2024-03-08T07:39:36;28.43;;;23.23;;
11797;SDS011;5956;51.428;6.682;2024-03-08T07:42:02;29.83;;;24.60;;
11797;SDS011;5956;51.428;6.682;2024-03-08T07:44:29;28.67;;;23.53;;
11797;SDS011;5956;51.428;6.682;2024-03-08T07:46:58;29.63;;;23.50;;
11797;SDS011;5956;51.428;6.682;2024-03-08T07:49:24;26.77;;;22.10;;
11797;SDS011;5956;51.428;6.682;2024-03-08T07:51:51;26.40;;;23.30;;
11797;SDS011;5956;51.428;6.682;2024-03-08T07:54:18;26.93;;;23.23;;
11797;SDS011;5956;51.428;6.682;2024-03-08T07:56:45;26.83;;;22.80;;
11797;SDS011;5956;51.428;6.682;2024-03-08T07:59:12;31.30;;;25.60;;
11797;SDS011;5956;51.428;6.682;2024-03-08T08:01:38;27.20;;;23.77;;
11797;SDS011;5956;51.428;6.682;2024-03-08T08:04:06;29.10;;;22.93;;
11797;SDS011;5956;51.428;6.682;2024-03-08T08:06:37;28.33;;;23.23;;
11797;SDS011;5956;51.428;6.682;2024-03-08T08:09:06;30.07;;;23.30;;
11797;SDS011;5956;51.428;6.682;2024-03-08T08:11:35;26.73;;;22.83;;
11797;SDS011;5956;51.428;6.682;2024-03-08T08:14:01;29.57;;;23.60;;
11797;SDS011;5956;51.428;6.682;2024-03-08T08:16:28;24.83;;;21.13;;
11797;SDS011;5956;51.428;6.682;2024-03-08T08:18:54;26.80;;;22.80;;
11797;SDS011;5956;51.428;6.682;2024-03-08T08:21:22;27.13;;;22.37;;
11797;SDS011;5956;51.428;6.682;2024-03-08T08:23:51;25.30;;;21.53;;
11797;SDS011;5956;51.428;6.682;2024-03-08T08:26:28;26.27;;;22.40;;
11797;SDS011;5956;51.428;6.682;2024-03-08T08:28:55;27.33;;;23.03;;
11797;SDS011;5956;51.428;6.682;2024-03-08T08:31:21;26.37;;;22.40;;
11797;SDS011;5956;51.428;6.682;2024-03-08T08:33:48;26.43;;;22.17;;
11797;SDS011;5956;51.428;6.682;2024-03-08T08:36:14;28.43;;;22.90;;
11797;SDS011;5956;51.428;6.682;2024-03-08T08:38:42;27.37;;;22.07;;
11797;SDS011;5956;51.428;6.682;2024-03-08T08:41:09;26.97;;;21.83;;
11797;SDS011;5956;51.428;6.682;2024-03-08T08:43:36;24.77;;;21.80;;
11797;SDS011;5956;51.428;6.682;2024-03-08T08:46:04;26.10;;;21.77;;
11797;SDS011;5956;51.428;6.682;2024-03-08T08:48:31;25.27;;;22.40;;
11797;SDS011;5956;51.428;6.682;2024-03-08T08:50:57;25.10;;;22.10;;
11797;SDS011;5956;51.428;6.682;2024-03-08T08:53:24;23.83;;;20.53;;
11797;SDS011;5956;51.428;6.682;2024-03-08T08:55:52;23.17;;;20.33;;
11797;SDS011;5956;51.428;6.682;2024-03-08T08:58:19;25.93;;;21.00;;
11797;SDS011;5956;51.428;6.682;2024-03-08T09:00:45;25.73;;;22.20;;
11797;SDS011;5956;51.428;6.682;2024-03-08T09:03:12;24.00;;;20.87;;
11797;SDS011;5956;51.428;6.682;2024-03-08T09:05:38;30.97;;;21.30;;
11797;SDS011;5956;51.428;6.682;2024-03-08T09:08:07;27.43;;;21.93;;
11797;SDS011;5956;51.428;6.682;2024-03-08T09:10:34;22.40;;;20.00;;
11797;SDS011;5956;51.428;6.682;2024-03-08T09:13:02;23.17;;;19.23;;
11797;SDS011;5956;51.428;6.682;2024-03-08T09:15:29;20.20;;;17.47;;
11797;SDS011;5956;51.428;6.682;2024-03-08T09:17:55;18.93;;;16.97;;
11797;SDS011;5956;51.428;6.682;2024-03-08T09:20:22;21.33;;;17.47;;
11797;SDS011;5956;51.428;6.682;2024-03-08T09:22:50;19.17;;;16.80;;
11797;SDS011;5956;51.428;6.682;2024-03-08T09:25:16;20.07;;;17.23;;
11797;SDS011;5956;51.428;6.682;2024-03-08T09:27:43;20.73;;;18.63;;
11797;SDS011;5956;51.428;6.682;2024-03-08T09:30:13;23.33;;;18.03;;
11797;SDS011;5956;51.428;6.682;2024-03-08T09:32:40;20.23;;;17.97;;
11797;SDS011;5956;51.428;6.682;2024-03-08T09:35:08;18.67;;;16.73;;
11797;SDS011;5956;51.428;6.682;2024-03-08T09:37:36;19.33;;;17.33;;
11797;SDS011;5956;51.428;6.682;2024-03-08T09:40:03;19.70;;;16.83;;
11797;SDS011;5956;51.428;6.682;2024-03-08T09:42:34;20.43;;;18.23;;
11797;SDS011;5956;51.428;6.682;2024-03-08T09:45:03;20.20;;;18.13;;
11797;SDS011;5956;51.428;6.682;2024-03-08T09:47:31;19.90;;;17.37;;
11797;SDS011;5956;51.428;6.682;2024-03-08T09:49:59;22.10;;;18.47;;
11797;SDS011;5956;51.428;6.682;2024-03-08T09:52:26;20.63;;;17.73;;
11797;SDS011;5956;51.428;6.682;2024-03-08T09:54:52;20.53;;;17.90;;
11797;SDS011;5956;51.428;6.682;2024-03-08T09:57:20;19.57;;;17.43;;
11797;SDS011;5956;51.428;6.682;2024-03-08T09:59:47;22.57;;;17.93;;
11797;SDS011;5956;51.428;6.682;2024-03-08T10:02:14;20.53;;;18.30;;
11797;SDS011;5956;51.428;6.682;2024-03-08T10:04:42;20.23;;;18.07;;
11797;SDS011;5956;51.428;6.682;2024-03-08T10:07:11;19.67;;;17.67;;
11797;SDS011;5956;51.428;6.682;2024-03-08T10:09:38;21.30;;;18.90;;
11797;SDS011;5956;51.428;6.682;2024-03-08T10:12:04;22.50;;;18.07;;
11797;SDS011;5956;51.428;6.682;2024-03-08T10:14:31;21.50;;;19.20;;
11797;SDS011;5956;51.428;6.682;2024-03-08T10:16:58;21.30;;;19.10;;
11797;SDS011;5956;51.428;6.682;2024-03-08T10:19:26;21.40;;;19.20;;
11797;SDS011;5956;51.428;6.682;2024-03-08T10:21:54;20.50;;;18.30;;
11797;SDS011;5956;51.428;6.682;2024-03-08T10:24:22;23.00;;;19.23;;
11797;SDS011;5956;51.428;6.682;2024-03-08T10:26:48;20.90;;;18.70;;
11797;SDS011;5956;51.428;6.682;2024-03-08T10:29:18;19.87;;;17.73;;
11797;SDS011;5956;51.428;6.682;2024-03-08T10:31:45;20.13;;;17.23;;
11797;SDS011;5956;51.428;6.682;2024-03-08T10:34:11;18.83;;;16.83;;
11797;SDS011;5956;51.428;6.682;2024-03-08T10:36:38;19.23;;;16.13;;
11797;SDS011;5956;51.428;6.682;2024-03-08T10:39:08;18.97;;;16.57;;
11797;SDS011;5956;51.428;6.682;2024-03-08T10:41:36;17.93;;;16.03;;
11797;SDS011;5956;51.428;6.682;2024-03-08T10:44:10;17.40;;;15.70;;
11797;SDS011;5956;51.428;6.682;2024-03-08T10:46:40;16.00;;;14.23;;
11797;SDS011;5956;51.428;6.682;2024-03-08T10:49:11;16.70;;;14.93;;
11797;SDS011;5956;51.428;6.682;2024-03-08T10:51:38;18.47;;;16.50;;
11797;SDS011;5956;51.428;6.682;2024-03-08T10:54:07;18.00;;;16.13;;
11797;SDS011;5956;51.428;6.682;2024-03-08T10:56:36;19.93;;;15.73;;
11797;SDS011;5956;51.428;6.682;2024-03-08T10:59:03;15.87;;;14.07;;
11797;SDS011;5956;51.428;6.682;2024-03-08T11:01:30;15.40;;;13.87;;
11797;SDS011;5956;51.428;6.682;2024-03-08T11:03:56;14.63;;;13.07;;
11797;SDS011;5956;51.428;6.682;2024-03-08T11:06:30;18.00;;;14.97;;
11797;SDS011;5956;51.428;6.682;2024-03-08T11:08:57;15.53;;;13.93;;
11797;SDS011;5956;51.428;6.682;2024-03-08T11:11:25;13.38;;;12.07;;
11797;SDS011;5956;51.428;6.682;2024-03-08T11:13:55;11.13;;;10.13;;
11797;SDS011;5956;51.428;6.682;2024-03-08T11:19:24;10.80;;;9.77;;
11797;SDS011;5956;51.428;6.682;2024-03-08T11:22:01;12.13;;;10.93;;
11797;SDS011;5956;51.428;6.682;2024-03-08T11:24:36;11.43;;;10.25;;
11797;SDS011;5956;51.428;6.682;2024-03-08T11:27:06;11.07;;;9.98;;
11797;SDS011;5956;51.428;6.682;2024-03-08T11:29:37;10.77;;;9.48;;
11797;SDS011;5956;51.428;6.682;2024-03-08T11:32:05;16.05;;;12.73;;
11797;SDS011;5956;51.428;6.682;2024-03-08T11:34:33;13.35;;;11.95;;
11797;SDS011;5956;51.428;6.682;2024-03-08T11:36:59;15.55;;;13.95;;
11797;SDS011;5956;51.428;6.682;2024-03-08T11:39:26;15.68;;;14.07;;
11797;SDS011;5956;51.428;6.682;2024-03-08T11:41:53;15.00;;;13.27;;
11797;SDS011;5956;51.428;6.682;2024-03-08T11:44:24;15.43;;;13.82;;
11797;SDS011;5956;51.428;6.682;2024-03-08T11:46:52;13.45;;;12.05;;
11797;SDS011;5956;51.428;6.682;2024-03-08T11:49:19;11.82;;;10.73;;
11797;SDS011;5956;51.428;6.682;2024-03-08T11:51:45;13.35;;;12.00;;
11797;SDS011;5956;51.428;6.682;2024-03-08T11:54:12;15.77;;;14.18;;
11797;SDS011;5956;51.428;6.682;2024-03-08T11:56:40;15.45;;;12.98;;
11797;SDS011;5956;51.428;6.682;2024-03-08T11:59:10;13.73;;;12.38;;
11797;SDS011;5956;51.428;6.682;2024-03-08T12:01:39;18.48;;;16.65;;
11797;SDS011;5956;51.428;6.682;2024-03-08T12:04:05;18.85;;;17.05;;
11797;SDS011;5956;51.428;6.682;2024-03-08T12:06:36;20.35;;;18.17;;
11797;SDS011;5956;51.428;6.682;2024-03-08T12:09:04;20.50;;;18.48;;
11797;SDS011;5956;51.428;6.682;2024-03-08T12:11:30;21.70;;;19.58;;
11797;SDS011;5956;51.428;6.682;2024-03-08T12:13:57;22.08;;;20.08;;
11797;SDS011;5956;51.428;6.682;2024-03-08T12:16:24;21.50;;;19.35;;
11797;SDS011;5956;51.428;6.682;2024-03-08T12:18:52;21.05;;;18.95;;
11797;SDS011;5956;51.428;6.682;2024-03-08T12:21:20;21.73;;;19.30;;
11797;SDS011;5956;51.428;6.682;2024-03-08T12:23:53;16.05;;;14.52;;
11797;SDS011;5956;51.428;6.682;2024-03-08T12:26:28;19.10;;;17.30;;
11797;SDS011;5956;51.428;6.682;2024-03-08T12:28:56;20.10;;;17.98;;
11797;SDS011;5956;51.428;6.682;2024-03-08T12:31:40;19.60;;;17.67;;
11797;SDS011;5956;51.428;6.682;2024-03-08T12:34:09;19.65;;;17.80;;
11797;SDS011;5956;51.428;6.682;2024-03-08T12:36:36;19.92;;;17.95;;
11797;SDS011;5956;51.428;6.682;2024-03-08T12:39:02;20.10;;;18.17;;
11797;SDS011;5956;51.428;6.682;2024-03-08T12:41:29;21.02;;;19.05;;
11797;SDS011;5956;51.428;6.682;2024-03-08T12:43:57;18.70;;;16.83;;
11797;SDS011;5956;51.428;6.682;2024-03-08T12:46:24;16.25;;;14.75;;
11797;SDS011;5956;51.428;6.682;2024-03-08T12:48:52;16.70;;;15.00;;
11797;SDS011;5956;51.428;6.682;2024-03-08T12:51:20;15.40;;;13.80;;
11797;SDS011;5956;51.428;6.682;2024-03-08T12:53:49;14.95;;;13.63;;
11797;SDS011;5956;51.428;6.682;2024-03-08T12:56:28;14.27;;;12.98;;
11797;SDS011;5956;51.428;6.682;2024-03-08T12:58:55;18.92;;;17.17;;
11797;SDS011;5956;51.428;6.682;2024-03-08T13:01:22;20.05;;;18.23;;
11797;SDS011;5956;51.428;6.682;2024-03-08T13:03:49;21.08;;;18.15;;
11797;SDS011;5956;51.428;6.682;2024-03-08T13:06:16;18.90;;;17.23;;
11797;SDS011;5956;51.428;6.682;2024-03-08T13:08:44;18.23;;;16.55;;
11797;SDS011;5956;51.428;6.682;2024-03-08T13:11:11;19.35;;;17.55;;
11797;SDS011;5956;51.428;6.682;2024-03-08T13:13:39;18.17;;;16.48;;
11797;SDS011;5956;51.428;6.682;2024-03-08T13:16:07;17.05;;;15.50;;
11797;SDS011;5956;51.428;6.682;2024-03-08T13:18:34;17.27;;;15.48;;
11797;SDS011;5956;51.428;6.682;2024-03-08T13:21:01;16.73;;;15.05;;
11797;SDS011;5956;51.428;6.682;2024-03-08T13:23:34;15.82;;;14.35;;
11797;SDS011;5956;51.428;6.682;2024-03-08T13:26:06;10.68;;;9.68;;
11797;SDS011;5956;51.428;6.682;2024-03-08T13:28:33;9.63;;;8.82;;
11797;SDS011;5956;51.428;6.682;2024-03-08T13:31:03;8.05;;;7.45;;
11797;SDS011;5956;51.428;6.682;2024-03-08T13:33:32;9.00;;;8.20;;
11797;SDS011;5956;51.428;6.682;2024-03-08T13:36:00;8.35;;;7.65;;
11797;SDS011;5956;51.428;6.682;2024-03-08T13:38:28;9.10;;;8.23;;
11797;SDS011;5956;51.428;6.682;2024-03-08T13:40:57;8.50;;;7.68;;
11797;SDS011;5956;51.428;6.682;2024-03-08T13:43:25;8.48;;;7.75;;
11797;SDS011;5956;51.428;6.682;2024-03-08T13:45:53;8.75;;;7.85;;
11797;SDS011;5956;51.428;6.682;2024-03-08T13:48:20;9.30;;;8.48;;
11797;SDS011;5956;51.428;6.682;2024-03-08T13:50:47;8.55;;;7.75;;
11797;SDS011;5956;51.428;6.682;2024-03-08T13:53:14;7.68;;;7.07;;
11797;SDS011;5956;51.428;6.682;2024-03-08T13:55:41;8.50;;;7.80;;
11797;SDS011;5956;51.428;6.682;2024-03-08T13:58:08;8.05;;;7.32;;
11797;SDS011;5956;51.428;6.682;2024-03-08T14:00:37;8.32;;;7.63;;
11797;SDS011;5956;51.428;6.682;2024-03-08T14:03:03;8.35;;;7.65;;
11797;SDS011;5956;51.428;6.682;2024-03-08T14:05:31;8.80;;;8.10;;
11797;SDS011;5956;51.428;6.682;2024-03-08T14:07:59;8.15;;;7.53;;
11797;SDS011;5956;51.428;6.682;2024-03-08T14:10:28;8.55;;;7.75;;
11797;SDS011;5956;51.428;6.682;2024-03-08T14:12:56;7.68;;;7.07;;
11797;SDS011;5956;51.428;6.682;2024-03-08T14:15:23;8.45;;;7.75;;
11797;SDS011;5956;51.428;6.682;2024-03-08T14:17:55;8.65;;;7.95;;
11797;SDS011;5956;51.428;6.682;2024-03-08T14:20:22;8.55;;;7.85;;
11797;SDS011;5956;51.428;6.682;2024-03-08T14:22:50;6.82;;;6.13;;
11797;SDS011;5956;51.428;6.682;2024-03-08T14:25:17;8.90;;;8.00;;
11797;SDS011;5956;51.428;6.682;2024-03-08T14:27:44;8.70;;;7.90;;
11797;SDS011;5956;51.428;6.682;2024-03-08T14:30:11;8.50;;;7.80;;
11797;SDS011;5956;51.428;6.682;2024-03-08T14:32:37;9.05;;;8.23;;
11797;SDS011;5956;51.428;6.682;2024-03-08T14:35:06;9.35;;;8.45;;
11797;SDS011;5956;51.428;6.682;2024-03-08T14:37:33;7.80;;;7.25;;
11797;SDS011;5956;51.428;6.682;2024-03-08T14:40:00;8.60;;;7.90;;
11797;SDS011;5956;51.428;6.682;2024-03-08T14:42:26;9.80;;;9.00;;